createdAt,value
2023-02-02T00:01:26.629Z,0.90
2023-02-02T00:03:53.550Z,0.90
2023-02-02T00:06:25.065Z,0.93
2023-02-02T00:08:52.016Z,1.20
2023-02-02T00:11:21.119Z,0.80
2023-02-02T00:13:47.757Z,0.80
2023-02-02T00:16:43.530Z,1.30
2023-02-02T00:19:20.097Z,1.33
2023-02-02T00:21:46.679Z,0.93
2023-02-02T00:24:17.950Z,0.70
2023-02-02T00:26:49.089Z,1.40
2023-02-02T00:29:19.547Z,1.20
2023-02-02T00:31:48.747Z,1.05
2023-02-02T00:34:18.396Z,1.23
2023-02-02T00:36:46.065Z,1.13
2023-02-02T00:39:26.063Z,1.08
2023-02-02T00:41:52.665Z,1.10
2023-02-02T00:44:40.454Z,1.23
2023-02-02T00:47:07.080Z,0.90
2023-02-02T00:49:36.180Z,1.10
2023-02-02T00:52:02.818Z,1.50
2023-02-02T00:54:29.509Z,0.70
2023-02-02T00:56:56.111Z,1.27
2023-02-02T00:59:22.682Z,1.10
2023-02-02T01:01:49.272Z,0.80
2023-02-02T01:04:15.881Z,1.15
2023-02-02T01:06:44.765Z,1.20
2023-02-02T01:09:13.771Z,1.20
2023-02-02T01:11:40.339Z,0.87
2023-02-02T01:14:09.221Z,1.08
2023-02-02T01:16:38.575Z,1.02
2023-02-02T01:19:05.164Z,1.10
2023-02-02T01:21:31.780Z,0.90
2023-02-02T01:23:58.339Z,1.00
2023-02-02T01:26:27.252Z,1.00
2023-02-02T01:28:56.119Z,1.00
2023-02-02T01:31:25.350Z,1.05
2023-02-02T01:33:52.154Z,1.60
2023-02-02T01:36:22.677Z,5.17
2023-02-02T01:38:51.977Z,9.07
2023-02-02T01:41:22.236Z,4.63
2023-02-02T01:43:52.737Z,3.03
2023-02-02T01:46:23.673Z,2.00
2023-02-02T01:49:14.376Z,1.33
2023-02-02T01:51:47.660Z,1.13
2023-02-02T01:54:24.637Z,0.95
2023-02-02T01:56:59.872Z,1.13
2023-02-02T01:59:31.139Z,1.10
2023-02-02T02:01:58.094Z,1.60
2023-02-02T02:04:26.401Z,0.93
2023-02-02T02:06:53.695Z,0.75
2023-02-02T02:09:21.201Z,1.08
2023-02-02T02:11:50.964Z,0.70
2023-02-02T02:14:38.501Z,1.00
2023-02-02T02:17:23.876Z,1.13
2023-02-02T02:20:18.195Z,1.40
2023-02-02T02:23:14.628Z,1.10
2023-02-02T02:26:18.068Z,1.30
2023-02-02T02:29:09.624Z,0.83
2023-02-02T02:31:56.047Z,1.13
2023-02-02T02:34:43.303Z,1.20
2023-02-02T02:37:37.557Z,1.42
2023-02-02T02:40:14.274Z,1.08
2023-02-02T02:42:46.531Z,1.30
2023-02-02T02:45:16.873Z,1.33
2023-02-02T02:47:44.301Z,0.98
2023-02-02T02:50:11.752Z,1.05
2023-02-02T02:52:40.152Z,0.85
2023-02-02T02:55:09.232Z,1.40
2023-02-02T02:58:00.662Z,0.85
2023-02-02T03:00:45.556Z,1.33
2023-02-02T03:03:52.978Z,1.02
2023-02-02T03:06:31.002Z,1.23
2023-02-02T03:09:08.484Z,1.07
2023-02-02T03:11:35.599Z,1.00
2023-02-02T03:14:07.610Z,1.23
2023-02-02T03:16:36.562Z,1.27
2023-02-02T03:19:04.618Z,1.40
2023-02-02T03:21:32.609Z,1.03
2023-02-02T03:24:01.981Z,1.25
2023-02-02T03:26:31.069Z,1.02
2023-02-02T03:28:57.809Z,1.15
2023-02-02T03:31:28.677Z,1.10
2023-02-02T03:33:58.104Z,1.57
2023-02-02T03:36:27.948Z,1.10
2023-02-02T03:38:56.874Z,1.30
2023-02-02T03:41:25.632Z,0.80
2023-02-02T03:43:54.514Z,1.10
2023-02-02T03:46:23.929Z,1.17
2023-02-02T03:48:50.501Z,1.30
2023-02-02T03:51:22.085Z,1.08
2023-02-02T03:53:50.893Z,1.33
2023-02-02T03:56:19.998Z,1.05
2023-02-02T03:58:47.404Z,1.10
2023-02-02T04:01:14.949Z,1.35
2023-02-02T04:03:42.201Z,1.15
2023-02-02T04:06:11.339Z,1.17
2023-02-02T04:08:40.114Z,1.13
2023-02-02T04:11:10.146Z,1.03
2023-02-02T04:13:40.039Z,1.65
2023-02-02T04:16:09.366Z,1.10
2023-02-02T04:18:39.236Z,0.88
2023-02-02T04:21:08.872Z,0.93
2023-02-02T04:23:36.042Z,0.80
2023-02-02T04:26:05.475Z,1.00
2023-02-02T04:28:32.445Z,1.30
2023-02-02T04:31:01.521Z,1.15
2023-02-02T04:33:30.383Z,1.20
2023-02-02T04:35:57.033Z,1.00
2023-02-02T04:38:23.632Z,1.17
2023-02-02T04:40:54.971Z,1.00
2023-02-02T04:43:21.659Z,1.10
2023-02-02T04:45:48.278Z,1.35
2023-02-02T04:48:14.824Z,1.00
2023-02-02T04:50:43.507Z,1.00
2023-02-02T04:53:12.509Z,1.50
2023-02-02T04:55:39.086Z,0.90
2023-02-02T04:58:06.307Z,1.40
2023-02-02T05:00:33.111Z,1.30
2023-02-02T05:03:04.319Z,1.50
2023-02-02T05:05:30.971Z,1.30
2023-02-02T05:08:02.056Z,1.30
2023-02-02T05:10:30.698Z,1.42
2023-02-02T05:12:57.251Z,0.70
2023-02-02T05:15:28.359Z,0.95
2023-02-02T05:17:57.259Z,0.60
2023-02-02T05:20:23.813Z,0.68
2023-02-02T05:22:52.848Z,0.82
2023-02-02T05:25:19.442Z,0.70
2023-02-02T05:27:48.223Z,1.00
2023-02-02T05:30:17.322Z,0.90
2023-02-02T05:32:46.218Z,0.95
2023-02-02T05:35:12.874Z,0.88
2023-02-02T05:37:42.136Z,1.40
2023-02-02T05:40:09.451Z,1.40
2023-02-02T05:42:38.212Z,1.00
2023-02-02T05:45:05.404Z,1.17
2023-02-02T05:47:31.965Z,1.15
2023-02-02T05:49:58.528Z,0.97
2023-02-02T05:52:27.464Z,0.98
2023-02-02T05:54:54.007Z,1.02
2023-02-02T05:57:20.542Z,0.80
2023-02-02T05:59:50.055Z,0.90
2023-02-02T06:02:16.595Z,0.90
2023-02-02T06:04:46.205Z,0.98
2023-02-02T06:07:13.212Z,0.80
2023-02-02T06:09:42.013Z,1.25
2023-02-02T06:12:11.089Z,0.60
2023-02-02T06:14:42.453Z,1.73
2023-02-02T06:17:09.037Z,0.73
2023-02-02T06:19:37.824Z,0.70
2023-02-02T06:22:09.241Z,0.60
2023-02-02T06:24:42.992Z,0.82
2023-02-02T06:27:12.021Z,0.70
2023-02-02T06:29:40.870Z,0.70
2023-02-02T06:32:09.900Z,0.80
2023-02-02T06:34:39.198Z,0.70
2023-02-02T06:37:08.039Z,0.93
2023-02-02T06:39:34.605Z,0.70
2023-02-02T06:42:11.928Z,0.65
2023-02-02T06:44:49.248Z,0.70
2023-02-02T06:47:15.824Z,0.77
2023-02-02T06:49:44.907Z,1.15
2023-02-02T06:52:14.198Z,0.90
2023-02-02T06:54:40.764Z,1.00
2023-02-02T06:57:07.351Z,1.10
2023-02-02T06:59:33.941Z,1.15
2023-02-02T07:02:04.056Z,0.70
2023-02-02T07:04:30.608Z,0.80
2023-02-02T07:06:57.208Z,1.02
2023-02-02T07:09:25.950Z,0.90
2023-02-02T07:11:52.486Z,0.70
2023-02-02T07:14:21.249Z,1.10
2023-02-02T07:16:50.092Z,0.77
2023-02-02T07:19:16.643Z,1.05
2023-02-02T07:21:43.237Z,0.98
2023-02-02T07:24:11.994Z,0.70
2023-02-02T07:26:39.200Z,0.90
2023-02-02T07:29:05.955Z,0.87
2023-02-02T07:31:35.541Z,0.80
2023-02-02T07:34:05.766Z,0.85
2023-02-02T07:36:32.443Z,1.13
2023-02-02T07:39:04.775Z,0.90
2023-02-02T07:41:32.283Z,0.63
2023-02-02T07:43:58.901Z,1.17
2023-02-02T07:46:27.859Z,0.80
2023-02-02T07:48:58.061Z,1.10
2023-02-02T07:51:25.713Z,0.90
2023-02-02T07:53:54.423Z,0.80
2023-02-02T07:56:28.012Z,1.00
2023-02-02T07:59:00.150Z,0.60
2023-02-02T08:01:28.601Z,1.60
2023-02-02T08:03:58.979Z,0.75
2023-02-02T08:06:28.834Z,1.02
2023-02-02T08:08:58.388Z,1.15
2023-02-02T08:11:26.386Z,1.00
2023-02-02T08:13:55.155Z,1.07
2023-02-02T08:16:25.184Z,1.00
2023-02-02T08:18:52.408Z,0.88
2023-02-02T08:21:19.791Z,0.93
2023-02-02T08:23:47.033Z,1.33
2023-02-02T08:26:24.464Z,1.03
2023-02-02T08:28:59.110Z,1.20
2023-02-02T08:31:31.920Z,1.00
2023-02-02T08:33:58.809Z,0.98
2023-02-02T08:36:27.191Z,0.93
2023-02-02T08:39:03.030Z,0.90
2023-02-02T08:41:30.197Z,1.30
2023-02-02T08:43:59.801Z,1.20
2023-02-02T08:46:29.467Z,1.20
2023-02-02T08:48:56.078Z,1.00
2023-02-02T08:51:22.634Z,1.20
2023-02-02T08:53:49.203Z,1.30
2023-02-02T08:56:18.540Z,1.00
2023-02-02T08:58:49.417Z,1.00
2023-02-02T09:01:28.645Z,1.45
2023-02-02T09:04:04.479Z,0.97
2023-02-02T09:06:36.044Z,1.10
2023-02-02T09:09:06.312Z,1.27
2023-02-02T09:11:38.388Z,1.00
2023-02-02T09:14:07.462Z,1.42
2023-02-02T09:16:35.492Z,1.50
2023-02-02T09:19:02.778Z,1.10
2023-02-02T09:21:29.365Z,1.55
2023-02-02T09:23:56.012Z,1.55
2023-02-02T09:26:24.043Z,1.45
2023-02-02T09:28:58.351Z,2.70
2023-02-02T09:31:27.502Z,1.40
2023-02-02T09:33:56.360Z,0.75
2023-02-02T09:36:27.339Z,0.60
2023-02-02T09:38:54.248Z,0.80
2023-02-02T09:41:39.467Z,1.27
2023-02-02T09:44:22.896Z,0.60
2023-02-02T09:47:27.997Z,0.75
2023-02-02T09:50:01.142Z,1.05
2023-02-02T09:52:49.518Z,0.70
2023-02-02T09:55:23.288Z,0.67
2023-02-02T09:57:57.873Z,0.60
2023-02-02T10:00:39.621Z,0.70
2023-02-02T10:03:15.247Z,0.90
2023-02-02T10:05:53.869Z,0.80
2023-02-02T10:08:42.635Z,0.93
2023-02-02T10:11:32.891Z,0.70
2023-02-02T10:14:07.656Z,0.80
2023-02-02T10:16:37.638Z,1.00
2023-02-02T10:19:09.823Z,0.80
2023-02-02T10:21:51.736Z,0.67
2023-02-02T10:24:25.145Z,0.65
2023-02-02T10:27:17.773Z,0.85
2023-02-02T10:29:58.372Z,0.68
2023-02-02T10:32:47.410Z,0.68
2023-02-02T10:35:42.936Z,0.80
2023-02-02T10:38:27.330Z,0.60
2023-02-02T10:41:06.045Z,1.02
2023-02-02T10:44:06.630Z,0.40
2023-02-02T10:46:47.449Z,0.50
2023-02-02T10:49:33.729Z,0.60
2023-02-02T10:52:26.756Z,0.60
2023-02-02T10:55:08.468Z,0.82
2023-02-02T10:57:37.970Z,0.90
2023-02-02T11:00:28.180Z,0.50
2023-02-02T11:02:56.087Z,0.40
2023-02-02T11:05:44.017Z,0.40
2023-02-02T11:08:16.144Z,0.30
2023-02-02T11:10:49.987Z,0.50
2023-02-02T11:13:26.996Z,0.30
2023-02-02T11:16:16.088Z,0.53
2023-02-02T11:18:47.748Z,0.50
2023-02-02T11:21:27.666Z,0.40
2023-02-02T11:24:04.008Z,0.40
2023-02-02T11:26:53.959Z,0.30
2023-02-02T11:29:31.757Z,0.30
2023-02-02T11:31:58.836Z,0.82
2023-02-02T11:34:28.025Z,0.40
2023-02-02T11:37:00.766Z,0.40
2023-02-02T11:39:28.099Z,0.30
2023-02-02T11:42:07.701Z,0.30
2023-02-02T11:44:40.040Z,0.25
2023-02-02T11:47:07.049Z,0.40
2023-02-02T11:49:42.564Z,0.40
2023-02-02T11:52:18.308Z,0.40
2023-02-02T11:54:51.529Z,0.50
2023-02-02T11:57:21.714Z,0.30
2023-02-02T11:59:50.331Z,0.38
2023-02-02T12:02:19.775Z,0.30
2023-02-02T12:04:53.541Z,0.40
2023-02-02T12:07:38.519Z,0.47
2023-02-02T12:10:25.644Z,0.70
2023-02-02T12:12:58.382Z,0.50
2023-02-02T12:15:33.998Z,0.50
2023-02-02T12:18:25.939Z,0.40
2023-02-02T12:21:16.772Z,0.50
2023-02-02T12:23:43.290Z,0.30
2023-02-02T12:26:19.136Z,0.30
2023-02-02T12:29:18.851Z,0.30
2023-02-02T12:31:45.419Z,0.50
2023-02-02T12:34:30.245Z,0.40
2023-02-02T12:37:28.773Z,0.30
2023-02-02T12:40:07.321Z,0.30
2023-02-02T12:43:18.728Z,0.45
2023-02-02T12:46:06.873Z,0.30
2023-02-02T12:48:45.993Z,0.30
2023-02-02T12:51:41.245Z,0.40
2023-02-02T12:54:49.892Z,0.40
2023-02-02T12:57:24.182Z,0.47
2023-02-02T13:00:04.202Z,0.43
2023-02-02T13:02:44.885Z,0.40
2023-02-02T13:05:32.697Z,0.30
2023-02-02T13:08:06.098Z,0.50
2023-02-02T13:10:39.835Z,0.38
2023-02-02T13:13:18.751Z,0.32
2023-02-02T13:15:52.955Z,0.30
2023-02-02T13:18:44.408Z,0.40
2023-02-02T13:21:22.681Z,0.70
2023-02-02T13:23:56.608Z,0.73
2023-02-02T13:26:27.840Z,0.32
2023-02-02T13:28:58.130Z,1.43
2023-02-02T13:31:47.502Z,0.35
2023-02-02T13:34:28.372Z,0.80
2023-02-02T13:37:04.773Z,0.30
2023-02-02T13:39:41.109Z,0.30
2023-02-02T13:42:22.518Z,0.40
2023-02-02T13:45:03.990Z,0.30
2023-02-02T13:47:42.952Z,0.40
2023-02-02T13:50:16.262Z,0.40
2023-02-02T13:53:08.789Z,0.47
2023-02-02T13:55:51.064Z,0.70
2023-02-02T13:58:26.809Z,0.45
2023-02-02T14:01:06.355Z,0.40
2023-02-02T14:03:44.735Z,0.40
2023-02-02T14:06:17.917Z,0.40
2023-02-02T14:08:52.557Z,0.30
2023-02-02T14:11:24.157Z,0.40
2023-02-02T14:14:12.290Z,0.40
2023-02-02T14:16:38.748Z,0.40
2023-02-02T14:19:14.220Z,0.40
2023-02-02T14:21:40.655Z,0.30
2023-02-02T14:24:26.203Z,0.50
2023-02-02T14:26:52.830Z,0.50
2023-02-02T14:29:31.773Z,0.40
2023-02-02T14:32:07.085Z,0.40
2023-02-02T14:34:40.060Z,0.40
2023-02-02T14:37:25.399Z,0.32
2023-02-02T14:39:58.064Z,0.43
2023-02-02T14:42:55.160Z,0.40
2023-02-02T14:45:32.105Z,0.40
2023-02-02T14:48:07.437Z,0.50
2023-02-02T14:50:58.198Z,0.30
2023-02-02T14:53:36.418Z,0.30
2023-02-02T14:56:15.967Z,0.60
2023-02-02T14:58:53.737Z,0.30
2023-02-02T15:01:21.521Z,0.30
2023-02-02T15:04:15.748Z,0.40
2023-02-02T15:06:43.229Z,0.40
2023-02-02T15:09:33.474Z,0.50
2023-02-02T15:12:05.365Z,0.38
2023-02-02T15:14:54.380Z,0.50
2023-02-02T15:17:41.349Z,0.60
2023-02-02T15:20:26.646Z,0.57
2023-02-02T15:23:07.564Z,0.40
2023-02-02T15:25:46.959Z,0.40
2023-02-02T15:28:36.301Z,0.80
2023-02-02T15:31:14.755Z,0.40
2023-02-02T15:33:51.597Z,0.30
2023-02-02T15:36:31.413Z,0.40
2023-02-02T15:39:26.832Z,0.50
2023-02-02T15:42:17.047Z,0.43
2023-02-02T15:44:43.762Z,0.50
2023-02-02T15:47:16.945Z,0.40
2023-02-02T15:49:46.221Z,0.45
2023-02-02T15:52:14.915Z,0.50
2023-02-02T15:54:53.916Z,0.40
2023-02-02T15:57:32.688Z,0.73
2023-02-02T16:00:03.445Z,0.57
2023-02-02T16:02:43.096Z,0.47
2023-02-02T16:05:26.304Z,0.43
2023-02-02T16:08:05.049Z,0.50
2023-02-02T16:10:33.824Z,0.73
2023-02-02T16:13:00.340Z,0.40
2023-02-02T16:15:32.952Z,0.50
2023-02-02T16:18:13.336Z,0.50
2023-02-02T16:20:42.564Z,0.50
2023-02-02T16:23:15.647Z,0.38
2023-02-02T16:25:49.661Z,0.40
2023-02-02T16:28:20.205Z,0.52
2023-02-02T16:30:49.293Z,0.82
2023-02-02T16:33:29.096Z,0.70
2023-02-02T16:36:00.832Z,1.63
2023-02-02T16:38:36.212Z,0.73
2023-02-02T16:41:08.779Z,2.67
2023-02-02T16:43:38.030Z,2.40
2023-02-02T16:46:12.350Z,0.70
2023-02-02T16:48:59.278Z,1.02
2023-02-02T16:51:32.898Z,1.25
2023-02-02T16:54:12.295Z,1.65
2023-02-02T16:56:44.786Z,0.90
2023-02-02T16:59:24.021Z,0.50
2023-02-02T17:02:18.360Z,1.08
2023-02-02T17:04:53.717Z,1.02
2023-02-02T17:07:23.458Z,1.17
2023-02-02T17:10:11.760Z,2.30
2023-02-02T17:12:38.230Z,5.50
2023-02-02T17:15:29.683Z,7.30
2023-02-02T17:20:27.869Z,3.40
2023-02-02T17:22:59.684Z,1.30
2023-02-02T17:25:34.887Z,0.83
2023-02-02T17:28:03.493Z,0.82
2023-02-02T17:30:34.636Z,0.95
2023-02-02T17:33:04.246Z,0.73
2023-02-02T17:35:43.605Z,1.00
2023-02-02T17:38:25.864Z,0.80
2023-02-02T17:40:53.156Z,1.13
2023-02-02T17:43:22.182Z,0.90
2023-02-02T17:45:51.148Z,0.80
2023-02-02T17:48:17.751Z,1.33
2023-02-02T17:50:45.088Z,1.10
2023-02-02T17:53:17.307Z,0.73
2023-02-02T17:55:47.559Z,0.80
2023-02-02T17:58:17.139Z,0.70
2023-02-02T18:00:54.188Z,0.63
2023-02-02T18:03:34.234Z,0.70
2023-02-02T18:06:01.759Z,0.70
2023-02-02T18:08:29.016Z,0.70
2023-02-02T18:10:55.577Z,0.77
2023-02-02T18:13:25.566Z,1.00
2023-02-02T18:15:53.201Z,0.90
2023-02-02T18:18:27.294Z,0.80
2023-02-02T18:20:56.141Z,0.88
2023-02-02T18:23:24.541Z,0.98
2023-02-02T18:25:54.437Z,0.80
2023-02-02T18:28:25.505Z,1.03
2023-02-02T18:30:52.024Z,0.85
2023-02-02T18:33:19.773Z,0.70
2023-02-02T18:35:47.849Z,0.77
2023-02-02T18:38:14.956Z,0.80
2023-02-02T18:40:44.771Z,1.00
2023-02-02T18:43:13.564Z,0.70
2023-02-02T18:45:44.796Z,1.10
2023-02-02T18:48:11.302Z,0.90
2023-02-02T18:50:37.764Z,0.80
2023-02-02T18:53:09.182Z,1.13
2023-02-02T18:55:37.483Z,0.60
2023-02-02T18:58:03.932Z,0.85
2023-02-02T19:00:32.923Z,1.15
2023-02-02T19:03:02.473Z,1.00
2023-02-02T19:05:47.578Z,1.00
2023-02-02T19:08:16.324Z,1.23
2023-02-02T19:10:42.780Z,1.05
2023-02-02T19:13:15.851Z,1.48
2023-02-02T19:15:48.303Z,1.15
2023-02-02T19:18:21.873Z,1.07
2023-02-02T19:20:56.670Z,0.90
2023-02-02T19:23:28.997Z,1.00
2023-02-02T19:25:56.149Z,0.77
2023-02-02T19:28:33.785Z,0.88
2023-02-02T19:31:02.144Z,0.67
2023-02-02T19:33:39.982Z,0.98
2023-02-02T19:36:17.429Z,0.70
2023-02-02T19:38:45.252Z,0.60
2023-02-02T19:41:23.118Z,0.93
2023-02-02T19:43:55.195Z,0.60
2023-02-02T19:46:26.725Z,0.80
2023-02-02T19:49:04.074Z,0.65
2023-02-02T19:51:45.364Z,0.60
2023-02-02T19:54:30.055Z,0.57
2023-02-02T19:56:59.588Z,0.63
2023-02-02T20:02:28.019Z,0.57
2023-02-02T20:05:14.148Z,0.45
2023-02-02T20:07:40.978Z,0.60
2023-02-02T20:10:26.121Z,0.50
2023-02-02T20:12:55.259Z,0.65
2023-02-02T20:15:32.239Z,0.60
2023-02-02T20:18:01.535Z,0.50
2023-02-02T20:20:43.402Z,0.50
2023-02-02T20:23:31.437Z,0.73
2023-02-02T20:25:59.193Z,0.90
2023-02-02T20:28:41.680Z,0.85
2023-02-02T20:31:11.216Z,0.60
2023-02-02T20:33:44.343Z,0.60
2023-02-02T20:36:31.537Z,0.63
2023-02-02T20:39:19.923Z,0.60
2023-02-02T20:41:48.748Z,0.80
2023-02-02T20:44:15.259Z,0.88
2023-02-02T20:46:41.811Z,0.60
2023-02-02T20:49:08.454Z,0.70
2023-02-02T20:51:40.590Z,0.70
2023-02-02T20:54:10.734Z,0.73
2023-02-02T20:56:37.437Z,0.73
2023-02-02T20:59:06.380Z,0.50
2023-02-02T21:01:38.641Z,0.50
2023-02-02T21:04:08.102Z,0.50
2023-02-02T21:06:35.349Z,0.68
2023-02-02T21:09:07.679Z,0.60
2023-02-02T21:11:34.985Z,0.80
2023-02-02T21:14:06.075Z,1.43
2023-02-02T21:16:33.103Z,0.70
2023-02-02T21:19:04.447Z,0.60
2023-02-02T21:21:31.033Z,0.80
2023-02-02T21:24:00.799Z,0.60
2023-02-02T21:26:30.628Z,0.80
2023-02-02T21:28:58.376Z,0.60
2023-02-02T21:31:25.816Z,0.50
2023-02-02T21:33:54.546Z,0.70
2023-02-02T21:36:28.128Z,0.65
2023-02-02T21:39:03.708Z,0.80
2023-02-02T21:41:32.342Z,0.60
2023-02-02T21:43:59.514Z,0.68
2023-02-02T21:46:37.191Z,0.85
2023-02-02T21:49:04.939Z,0.75
2023-02-02T21:51:38.482Z,0.90
2023-02-02T21:54:19.453Z,0.65
2023-02-02T21:56:45.971Z,0.85
2023-02-02T21:59:20.289Z,0.68
2023-02-02T22:01:54.333Z,0.77
2023-02-02T22:04:25.071Z,0.70
2023-02-02T22:07:00.933Z,0.70
2023-02-02T22:09:39.064Z,0.47
2023-02-02T22:12:20.397Z,0.50
2023-02-02T22:14:48.583Z,0.52
2023-02-02T22:17:21.864Z,0.70
2023-02-02T22:20:02.954Z,0.57
2023-02-02T22:22:39.708Z,0.68
2023-02-02T22:25:36.828Z,0.70
2023-02-02T22:28:36.607Z,0.50
2023-02-02T22:31:05.845Z,0.60
2023-02-02T22:33:32.418Z,0.50
2023-02-02T22:35:58.974Z,0.77
2023-02-02T22:38:28.147Z,0.57
2023-02-02T22:40:54.754Z,0.52
2023-02-02T22:43:21.999Z,0.53
2023-02-02T22:45:49.024Z,0.70
2023-02-02T22:48:16.514Z,0.68
2023-02-02T22:50:43.306Z,0.50
2023-02-02T22:53:14.142Z,0.55
2023-02-02T22:55:43.399Z,0.70
2023-02-02T22:58:12.506Z,0.68
2023-02-02T23:00:41.700Z,0.60
2023-02-02T23:03:10.734Z,0.50
2023-02-02T23:05:37.337Z,0.90
2023-02-02T23:08:06.361Z,0.57
2023-02-02T23:10:35.989Z,0.50
2023-02-02T23:13:04.018Z,0.75
2023-02-02T23:15:32.788Z,0.47
2023-02-02T23:18:02.586Z,0.43
2023-02-02T23:20:29.299Z,0.70
2023-02-02T23:22:58.355Z,0.50
2023-02-02T23:25:25.559Z,0.68
2023-02-02T23:27:54.429Z,0.60
2023-02-02T23:30:24.230Z,0.60
2023-02-02T23:32:51.086Z,0.43
2023-02-02T23:35:19.965Z,0.50
2023-02-02T23:37:48.690Z,0.40
2023-02-02T23:40:15.217Z,0.63
2023-02-02T23:42:41.761Z,0.55
2023-02-02T23:45:13.129Z,0.40
2023-02-02T23:47:40.168Z,0.30
2023-02-02T23:50:09.072Z,0.63
2023-02-02T23:52:36.999Z,0.60
2023-02-02T23:55:04.316Z,0.70
2023-02-02T23:57:33.586Z,0.50
